• Join FlightAware (Why Join?)
  • Login
  • US Flag 
03:12PM EDT


 

Airport Tracker/Info


-or-


 

Live Flight TrackerFlight Track Log ✈ CCA1223 ✈ 03-May-2013 ✈ ZBAA / PEK - ZLXY / XIY

Flight Track Log - Related Links

Times and Time Zones

All times are in EDT time to prevent confusion due to time zone crossing. See the CCA1223 flight status page for this flight to view local times or setup timezone preferences in your user account.

Time Position Orientation Groundspeed Altitude Reporting Facility
EDT Latitude Longitude Course Direction KTS MPH feet Rate Location/Type
12:53AM 40.3060 116.3390 254° West 340 391 13,200  Level FlightAware
12:53AM 40.2890 116.2590 254° West 340 391 13,200 2,640 Level FlightAware
12:54AM 40.2650 116.1570 253° West 364 419 17,000 4,140 Climbing FlightAware
12:55AM 40.2490 116.0880 253° West 369 425 18,400 1,320 Climbing FlightAware
12:55AM 40.2310 116.0030 255° West 370 426 18,800 240 Climbing FlightAware
12:56AM 40.2100 115.9110 253° West 370 426 18,800  Level FlightAware
12:57AM 40.1940 115.8380 254° West 370 426 18,800  Level FlightAware
12:58AM 40.1780 115.7650 254° West 370 426 18,800  Level FlightAware
12:58AM 40.1620 115.6910 254° West 370 426 18,800  Level FlightAware
01:01AM 39.9984 115.4688 226° Southwest  Level Estimated
01:02AM 39.9271 115.3726 226° Southwest  Level Estimated
01:03AM 39.8557 115.2766 226° Southwest  Level Estimated
01:04AM 39.7843 115.1807 226° Southwest  Level Estimated
01:05AM 39.7128 115.0851 226° Southwest  Level Estimated
01:06AM 39.6412 114.9896 226° Southwest  Level Estimated
01:07AM 39.5695 114.8943 226° Southwest  Level Estimated
01:08AM 39.4977 114.7993 226° Southwest  Level Estimated
01:09AM 39.4259 114.7044 226° Southwest  Level Estimated
01:10AM 39.3540 114.6097 226° Southwest  Level Estimated
01:11AM 39.2820 114.5153 225° Southwest  Level Estimated
01:12AM 39.2100 114.4210 225° Southwest  Level Estimated
01:13AM 39.1378 114.3269 225° Southwest  Level Estimated
01:14AM 39.0656 114.2330 225° Southwest  Level Estimated
01:15AM 38.9933 114.1393 225° Southwest  Level Estimated
01:16AM 38.9395 114.0697 225° Southwest  Level Estimated
01:17AM 38.8856 114.0002 225° Southwest  Level Estimated
01:18AM 38.8316 113.9307 225° Southwest  Level Estimated
01:19AM 38.7777 113.8614 225° Southwest  Level Estimated
01:20AM 38.7236 113.7922 225° Southwest  Level Estimated
01:21AM 38.6696 113.7231 225° Southwest  Level Estimated
01:22AM 38.6155 113.6541 225° Southwest  Level Estimated
01:23AM 38.5613 113.5852 225° Southwest  Level Estimated
01:24AM 38.5072 113.5164 225° Southwest  Level Estimated
01:25AM 38.4529 113.4477 225° Southwest  Level Estimated
01:26AM 38.3987 113.3792 225° Southwest  Level Estimated
01:27AM 38.3444 113.3107 225° Southwest  Level Estimated
01:28AM 38.2900 113.2423 225° Southwest  Level Estimated
01:29AM 38.2357 113.1740 225° Southwest  Level Estimated
01:30AM 38.1812 113.1059 225° Southwest  Level Estimated
01:31AM 38.1268 113.0378 225° Southwest  Level Estimated
01:32AM 38.0723 112.9698 224° Southwest  Level Estimated
01:33AM 38.0177 112.9019 224° Southwest  Level Estimated
01:34AM 37.9632 112.8342 224° Southwest  Level Estimated
01:35AM 37.9085 112.7665 224° Southwest  Level Estimated
01:36AM 37.8539 112.6989 224° Southwest  Level Estimated
01:37AM 37.7992 112.6315 224° Southwest  Level Estimated
01:38AM 37.7445 112.5641 224° Southwest  Level Estimated
01:39AM 37.6897 112.4968 224° Southwest  Level Estimated
01:40AM 37.6349 112.4297 224° Southwest  Level Estimated
01:41AM 37.5800 112.3626 224° Southwest  Level Estimated
01:42AM 37.5251 112.2956 224° Southwest  Level Estimated
01:43AM 37.4702 112.2288 224° Southwest  Level Estimated
01:44AM 37.4153 112.1620 224° Southwest  Level Estimated
01:45AM 37.3603 112.0953 224° Southwest  Level Estimated
01:46AM 37.3052 112.0287 224° Southwest  Level Estimated
01:47AM 37.2501 111.9622 224° Southwest  Level Estimated
01:48AM 37.1950 111.8959 224° Southwest  Level Estimated
01:49AM 37.1399 111.8296 224° Southwest  Level Estimated
01:50AM 37.0847 111.7634 224° Southwest  Level Estimated
01:51AM 37.0295 111.6973 224° Southwest  Level Estimated
01:52AM 36.9742 111.6313 224° Southwest  Level Estimated
01:53AM 36.9189 111.5654 224° Southwest  Level Estimated
01:54AM 36.8636 111.4996 224° Southwest  Level Estimated
01:55AM 36.8082 111.4339 224° Southwest  Level Estimated
01:56AM 36.7528 111.3683 224° Southwest  Level Estimated
01:57AM 36.6974 111.3028 223° Southwest  Level Estimated
01:58AM 36.6419 111.2373 223° Southwest  Level Estimated
01:59AM 36.5864 111.1720 223° Southwest  Level Estimated
02:00AM 36.5309 111.1068 223° Southwest  Level Estimated
02:01AM 36.4753 111.0416 223° Southwest  Level Estimated
02:02AM 36.4197 110.9766 223° Southwest  Level Estimated
02:03AM 36.3640 110.9116 223° Southwest  Level Estimated
02:04AM 36.3083 110.8467 223° Southwest  Level Estimated
02:05AM 36.2526 110.7820 223° Southwest  Level Estimated
02:06AM 36.1968 110.7173 223° Southwest  Level Estimated
02:07AM 36.1411 110.6527 223° Southwest  Level Estimated
02:08AM 36.0852 110.5882 223° Southwest  Level Estimated
02:09AM 36.0294 110.5238 223° Southwest  Level Estimated
02:10AM 35.9735 110.4595 223° Southwest  Level Estimated
02:11AM 35.9175 110.3953 223° Southwest  Level Estimated
02:12AM 35.8616 110.3311 223° Southwest  Level Estimated
02:13AM 35.8056 110.2671 223° Southwest  Level Estimated
02:14AM 35.7496 110.2032 223° Southwest  Level Estimated
02:15AM 35.6935 110.1393 223° Southwest  Level Estimated
02:16AM 35.6374 110.0755 223° Southwest  Level Estimated
02:17AM 35.5813 110.0118 223° Southwest  Level Estimated
02:18AM 35.5251 109.9483 223° Southwest  Level Estimated
02:19AM 35.4689 109.8848 223° Southwest  Level Estimated
02:20AM 35.4127 109.8214 223° Southwest  Level Estimated
02:21AM 35.3564 109.7580 223° Southwest  Level Estimated
02:22AM 35.3001 109.6948 223° Southwest  Level Estimated
02:23AM 35.2438 109.6316 222° Southwest  Level Estimated
02:24AM 35.1874 109.5686 222° Southwest  Level Estimated
02:25AM 35.1310 109.5056 222° Southwest  Level Estimated
02:26AM 35.0746 109.4427 222° Southwest  Level Estimated
02:27AM 35.0181 109.3799 222° Southwest  Level Estimated
02:28AM 34.9616 109.3172 222° Southwest  Level Estimated
02:29AM 34.9051 109.2546 222° Southwest  Level Estimated
02:30AM 34.8485 109.1920 222° Southwest  Level Estimated
02:31AM 34.7919 109.1296 222° Southwest  Level Estimated